Terminal Aerodrome Forecast
Issued by NWS

Home | Current Version | Previous Version | Text Only | Print | Product List | Glossary On
Versions: 1 2 3 4 5 6 7 8 9 10 11 12 13
000
FTUS43 KDTX 211100
TAFMBS
TAF
KMBS 211120Z 2112/2212 20006KT P6SM BKN120
     FM211500 23010KT P6SM BKN150
     FM212200 23008KT P6SM -SHRA BKN060 OVC100
     FM220200 26008KT 4SM -SHRA BKN025 OVC050
     FM220600 30012KT P6SM -SHRA SCT050 BKN100=

USA.gov is the U.S. government's official web portal to all federal, state and local government web resources and services.